Limedale, Indiana
Current Conditions -  °F | °C
As of 5:55 AM on Saturday 25 Oct 2014 (Local Time) from K4I7 Reporting Station
Broken Clouds Broken Clouds  
Wind Chill: 55°   Ceiling: 3700
Heat Index: 55°   Visibility: 10mi
Dew Point: 50°   Wind: 3mph
Humidity: 82%   Direction: 190°S
Pressure: 29.95"   Gusts: NA
Location:  39.6767°N, 86.9214°W
Report Text: K4I7 250955Z AUTO 19003KT 10SM SCT030 BKN037 BKN046 13/10 A2995 RMK AO2
Loading
Personal Weather Stations






























Interactive Weather Map
Tropical Storm Tracking
New forecast layout! Learn more

10-Day Weather Forecast

Advertisements
Track Severe Weather on mobile